Lewis Run, Pennsylvania
Current Conditions -  °F | °C
As of 10:00 PM on Thursday 27 Nov 2014 (Local Time) from KBFD Reporting Station
Overcast Overcast  
Wind Chill: 16°   Ceiling: 1800
Heat Index: 26°   Visibility: 10mi
Dew Point: 21°   Wind: 10mph
Humidity: 81%   Direction: 270°W
Pressure: 30.04"   Gusts: 18mph
Location:  41.87°N, 78.66°W
Report Text: KBFD 280300Z AUTO 27009G16KT 10SM OVC018 M03/M06 A3004 RMK AO2 T10331061
Loading
Personal Weather Stations






























Interactive Weather Map New forecast layout! Learn more

10-Day Weather Forecast

Advertisements
Track Severe Weather on mobile